Aviation Digital Data Service (ADDS)

Output produced by METARs form (0254 UTC 25 May 2017)
found at http://www.aviationweather.gov/adds/metars/
 
OOSA 250150Z 01003KT 9999 FEW025 SCT250 30/26 Q1007 NOSIG
TAF OOSA 241740Z 2418/2600 VRB03KT 9999 FEW025 
     BECMG 2506/2508 17010KT 
     BECMG 2515/2517 VRB03KT
       
OOMS 250150Z 23012KT CAVOK 36/21 Q1004 NOSIG
TAF OOMS 242300Z 2500/2606 21015KT CAVOK 
     BECMG 2507/2509 02014KT 
     BECMG 2515/2517 22008KT 
     TEMPO 2523/2604 20018KT